createdAt,value
2019-05-01T00:01:57.147Z,97017.21
2019-05-01T00:05:20.044Z,97017.00
2019-05-01T00:08:21.858Z,97017.08
2019-05-01T00:11:18.525Z,97008.78
2019-05-01T00:14:26.713Z,97013.08
2019-05-01T00:17:37.249Z,97010.98
2019-05-01T00:20:48.087Z,97009.09
2019-05-01T00:23:59.227Z,97006.64
2019-05-01T00:26:54.439Z,97002.56
2019-05-01T00:29:54.473Z,97005.23
2019-05-01T00:32:42.609Z,96999.33
2019-05-01T00:35:45.152Z,96997.53
2019-05-01T00:38:49.046Z,96998.56
2019-05-01T00:41:57.921Z,96998.61
2019-05-01T00:45:11.689Z,96989.23
2019-05-01T00:48:16.184Z,96988.84
2019-05-01T00:51:13.349Z,96983.41
2019-05-01T00:54:08.112Z,96976.30
2019-05-01T00:57:32.898Z,96977.52
2019-05-01T01:00:43.134Z,96974.61
2019-05-01T01:03:47.926Z,96973.66
2019-05-01T01:06:52.676Z,96979.47
2019-05-01T01:09:42.041Z,96973.03
2019-05-01T01:12:44.122Z,96969.56
2019-05-01T01:15:36.593Z,96967.16
2019-05-01T01:22:01.652Z,96958.20
2019-05-01T01:25:07.998Z,96955.22
2019-05-01T01:28:17.371Z,96957.23
2019-05-01T01:31:17.294Z,96959.52
2019-05-01T01:34:06.428Z,96955.66
2019-05-01T01:37:21.629Z,96952.16
2019-05-01T01:40:27.816Z,96949.36
2019-05-01T01:43:44.029Z,96944.73
2019-05-01T01:46:52.764Z,96942.19
2019-05-01T01:49:47.592Z,96941.94
2019-05-01T01:52:49.394Z,96942.91
2019-05-01T01:55:47.152Z,96940.42
2019-05-01T02:02:24.686Z,96932.65
2019-05-01T02:05:45.198Z,96936.73
2019-05-01T02:08:56.597Z,96928.74
2019-05-01T02:12:02.410Z,96934.80
2019-05-01T02:15:05.367Z,96931.69
2019-05-01T02:17:59.726Z,96932.43
2019-05-01T02:20:59.809Z,96935.40
2019-05-01T02:24:04.796Z,96939.05
2019-05-01T02:27:16.336Z,96932.09
2019-05-01T02:30:16.030Z,96927.70
2019-05-01T02:33:19.367Z,96928.42
2019-05-01T02:36:14.717Z,96927.39
2019-05-01T02:39:26.637Z,96929.08
2019-05-01T02:42:33.792Z,96929.84
2019-05-01T02:45:25.777Z,96926.47
2019-05-01T02:48:10.635Z,96925.16
2019-05-01T02:51:16.567Z,96924.74
2019-05-01T02:54:26.964Z,96926.86
2019-05-01T02:57:27.034Z,96923.41
2019-05-01T03:03:42.084Z,96919.42
2019-05-01T03:06:28.889Z,96917.47
2019-05-01T03:09:54.310Z,96918.45
2019-05-01T03:13:09.042Z,96910.49
2019-05-01T03:16:15.452Z,96910.30
2019-05-01T03:19:27.937Z,96908.45
2019-05-01T03:22:33.177Z,96905.25
2019-05-01T03:25:24.100Z,96904.81
2019-05-01T03:28:35.813Z,96899.87
2019-05-01T03:31:36.717Z,96904.75
2019-05-01T03:34:57.994Z,96893.11
2019-05-01T03:38:00.747Z,96896.45
2019-05-01T03:41:19.095Z,96894.48
2019-05-01T03:44:22.939Z,96898.73
2019-05-01T03:50:17.334Z,96892.14
2019-05-01T03:53:26.307Z,96891.81
2019-05-01T03:56:36.794Z,96894.92
2019-05-01T03:59:37.083Z,96901.34
2019-05-01T04:02:53.260Z,96908.64
2019-05-01T04:05:57.297Z,96905.48
2019-05-01T04:09:17.634Z,96906.52
2019-05-01T04:12:38.309Z,96898.70
2019-05-01T04:15:39.700Z,96901.00
2019-05-01T04:18:37.446Z,96897.19
2019-05-01T04:21:37.238Z,96897.02
2019-05-01T04:24:42.452Z,96901.03
2019-05-01T04:31:08.760Z,96893.20
2019-05-01T04:34:31.602Z,96897.36
2019-05-01T04:37:39.157Z,96900.38
2019-05-01T04:40:40.342Z,96897.83
2019-05-01T04:44:00.062Z,96897.41
2019-05-01T04:46:53.666Z,96893.80
2019-05-01T04:49:57.352Z,96891.62
2019-05-01T04:52:54.745Z,96896.12
2019-05-01T04:55:51.021Z,96898.73
2019-05-01T04:58:57.776Z,96905.67
2019-05-01T05:02:19.984Z,96898.16
2019-05-01T05:05:38.632Z,96899.63
2019-05-01T05:08:38.525Z,96898.17
2019-05-01T05:11:56.395Z,96904.05
2019-05-01T05:15:06.493Z,96902.56
2019-05-01T05:17:53.971Z,96900.01
2019-05-01T05:20:59.042Z,96893.63
2019-05-01T05:24:00.380Z,96894.48
2019-05-01T05:27:14.490Z,96895.34
2019-05-01T05:30:00.844Z,96890.61
2019-05-01T05:33:17.061Z,96889.05
2019-05-01T05:36:07.158Z,96887.09
2019-05-01T05:39:10.763Z,96882.02
2019-05-01T05:42:28.857Z,96888.38
2019-05-01T05:45:31.339Z,96884.33
2019-05-01T05:48:34.158Z,96886.05
2019-05-01T05:51:58.060Z,96870.48
2019-05-01T05:55:08.523Z,96871.55
2019-05-01T05:58:40.449Z,96875.13
2019-05-01T06:02:00.706Z,96876.79
2019-05-01T06:05:18.008Z,96870.25
2019-05-01T06:08:43.110Z,96873.98
2019-05-01T06:12:18.099Z,96874.22
2019-05-01T06:15:44.496Z,96871.94
2019-05-01T06:19:18.425Z,96873.63
2019-05-01T06:22:40.633Z,96874.20
2019-05-01T06:25:45.609Z,96871.20
2019-05-01T06:28:55.945Z,96872.81
2019-05-01T06:31:58.817Z,96875.99
2019-05-01T06:35:04.467Z,96871.89
2019-05-01T06:38:13.283Z,96868.13
2019-05-01T06:41:21.365Z,96859.42
2019-05-01T06:44:39.198Z,96868.97
2019-05-01T06:48:03.249Z,96871.78
2019-05-01T06:51:26.962Z,96876.31
2019-05-01T06:54:22.960Z,96882.66
2019-05-01T06:57:33.742Z,96883.22
2019-05-01T07:00:31.805Z,96880.44
2019-05-01T07:03:46.946Z,96882.80
2019-05-01T07:06:49.096Z,96871.58
2019-05-01T07:09:56.366Z,96873.39
2019-05-01T07:13:16.380Z,96883.30
2019-05-01T07:16:26.823Z,96875.42
2019-05-01T07:19:50.261Z,96875.16
2019-05-01T07:23:01.253Z,96869.64
2019-05-01T07:26:10.030Z,96875.55
2019-05-01T07:29:09.776Z,96864.84
2019-05-01T07:32:16.518Z,96872.86
2019-05-01T07:35:21.414Z,96870.96
2019-05-01T07:38:38.173Z,96877.56
2019-05-01T07:41:37.664Z,96875.98
2019-05-01T07:44:47.252Z,96878.13
2019-05-01T07:47:37.789Z,96879.60
2019-05-01T07:50:42.033Z,96879.08
2019-05-01T07:53:53.953Z,96878.58
2019-05-01T07:56:58.787Z,96883.72
2019-05-01T08:00:13.925Z,96881.45
2019-05-01T08:03:11.652Z,96887.27
2019-05-01T08:06:04.111Z,96878.01
2019-05-01T08:08:44.016Z,96883.00
2019-05-01T08:11:15.721Z,96874.30
2019-05-01T08:13:47.318Z,96883.42
2019-05-01T08:16:42.525Z,96885.41
2019-05-01T08:19:58.785Z,96881.11
2019-05-01T08:22:40.446Z,96884.37
2019-05-01T08:25:38.486Z,96879.91
2019-05-01T08:28:27.773Z,96887.05
2019-05-01T08:31:45.209Z,96880.33
2019-05-01T08:34:30.618Z,96881.36
2019-05-01T08:37:27.138Z,96880.61
2019-05-01T08:40:33.335Z,96877.26
2019-05-01T08:43:48.889Z,96882.33
2019-05-01T08:47:00.329Z,96879.06
2019-05-01T08:50:24.830Z,96878.02
2019-05-01T08:53:37.064Z,96878.80
2019-05-01T08:56:36.653Z,96870.68
2019-05-01T09:00:00.315Z,96870.17
2019-05-01T09:03:07.209Z,96869.23
2019-05-01T09:06:03.113Z,96875.34
2019-05-01T09:09:14.211Z,96870.53
2019-05-01T09:12:11.745Z,96866.87
2019-05-01T09:15:19.844Z,96870.78
2019-05-01T09:18:23.624Z,96867.95
2019-05-01T09:21:25.229Z,96872.91
2019-05-01T09:24:29.682Z,96865.94
2019-05-01T09:27:59.525Z,96869.97
2019-05-01T09:31:09.402Z,96860.81
2019-05-01T09:34:29.801Z,96857.63
2019-05-01T09:37:39.865Z,96857.78
2019-05-01T09:41:10.687Z,96856.72
2019-05-01T09:43:46.868Z,96858.09
2019-05-01T09:46:42.352Z,96854.28
2019-05-01T09:49:48.831Z,96849.83
2019-05-01T09:53:04.249Z,96854.05
2019-05-01T09:56:19.273Z,96847.27
2019-05-01T09:59:12.464Z,96842.25
2019-05-01T10:01:46.557Z,96835.82
2019-05-01T10:05:01.979Z,96837.33
2019-05-01T10:11:05.242Z,96837.52
2019-05-01T10:13:53.619Z,96840.09
2019-05-01T10:16:29.454Z,96830.81
2019-05-01T10:19:16.650Z,96826.19
2019-05-01T10:22:02.011Z,96820.73
2019-05-01T10:24:37.511Z,96820.11
2019-05-01T10:27:20.161Z,96821.00
2019-05-01T10:30:17.454Z,96825.39
2019-05-01T10:33:15.890Z,96811.48
2019-05-01T10:36:21.620Z,96813.26
2019-05-01T10:39:16.044Z,96818.30
2019-05-01T10:42:01.350Z,96808.36
2019-05-01T10:44:54.891Z,96808.36
2019-05-01T10:47:55.026Z,96807.94
2019-05-01T10:50:52.165Z,96804.22
2019-05-01T10:53:55.085Z,96805.05
2019-05-01T10:56:47.456Z,96804.87
2019-05-01T10:59:40.212Z,96797.47
2019-05-01T11:03:02.092Z,96793.41
2019-05-01T11:05:55.348Z,96796.27
2019-05-01T11:08:30.418Z,96791.73
2019-05-01T11:11:03.322Z,96783.25
2019-05-01T11:13:55.459Z,96783.20
2019-05-01T11:16:47.141Z,96787.27
2019-05-01T11:19:42.391Z,96786.03
2019-05-01T11:22:45.194Z,96782.77
2019-05-01T11:30:33.382Z,96773.22
2019-05-01T11:33:08.797Z,96768.39
2019-05-01T11:36:08.955Z,96767.81
2019-05-01T11:38:42.051Z,96765.48
2019-05-01T11:41:30.285Z,96761.58
2019-05-01T11:43:59.850Z,96759.31
2019-05-01T11:46:57.205Z,96756.91
2019-05-01T11:49:26.544Z,96763.41
2019-05-01T11:51:55.901Z,96758.11
2019-05-01T11:54:25.195Z,96751.95
2019-05-01T11:56:54.572Z,96745.55
2019-05-01T11:59:23.907Z,96746.26
2019-05-01T12:01:53.246Z,96749.32
2019-05-01T12:04:24.901Z,96749.47
2019-05-01T12:06:54.439Z,96746.23
2019-05-01T12:09:23.918Z,96742.48
2019-05-01T12:11:56.122Z,96743.00
2019-05-01T12:14:25.644Z,96737.16
2019-05-01T12:17:03.276Z,96733.40
2019-05-01T12:19:32.791Z,96733.38
2019-05-01T12:22:02.248Z,96732.78
2019-05-01T12:24:31.619Z,96730.75
2019-05-01T12:27:00.994Z,96736.55
2019-05-01T12:29:30.480Z,96731.47
2019-05-01T12:31:59.904Z,96726.80
2019-05-01T12:34:29.351Z,96731.16
2019-05-01T12:37:16.331Z,96723.48
2019-05-01T12:39:45.960Z,96723.75
2019-05-01T12:42:16.202Z,96716.13
2019-05-01T12:44:45.582Z,96708.97
2019-05-01T12:47:27.355Z,96709.40
2019-05-01T12:49:57.055Z,96707.01
2019-05-01T12:52:35.870Z,96709.77
2019-05-01T12:55:14.036Z,96704.72
2019-05-01T12:57:43.458Z,96702.16
2019-05-01T13:00:15.988Z,96699.81
2019-05-01T13:02:45.404Z,96702.23
2019-05-01T13:05:14.779Z,96691.25
2019-05-01T13:07:44.636Z,96692.07
2019-05-01T13:10:14.583Z,96686.67
2019-05-01T13:12:43.931Z,96687.90
2019-05-01T13:15:13.580Z,96676.73
2019-05-01T13:17:42.908Z,96680.09
2019-05-01T13:20:12.393Z,96684.86
2019-05-01T13:22:41.837Z,96669.58
2019-05-01T13:25:11.304Z,96672.56
2019-05-01T13:27:49.829Z,96673.09
2019-05-01T13:30:37.236Z,96669.22
2019-05-01T13:33:06.703Z,96661.45
2019-05-01T13:35:36.242Z,96653.98
2019-05-01T13:38:05.645Z,96656.91
2019-05-01T13:40:35.005Z,96648.58
2019-05-01T13:43:04.382Z,96644.33
2019-05-01T13:45:33.888Z,96648.72
2019-05-01T13:48:03.452Z,96644.21
2019-05-01T13:50:33.017Z,96636.59
2019-05-01T13:53:02.363Z,96632.65
2019-05-01T13:55:31.842Z,96633.97
2019-05-01T13:58:01.283Z,96634.29
2019-05-01T14:00:30.946Z,96629.33
2019-05-01T14:03:00.324Z,96621.59
2019-05-01T14:05:29.909Z,96627.61
2019-05-01T14:07:59.332Z,96622.52
2019-05-01T14:10:28.872Z,96623.35
2019-05-01T14:12:58.288Z,96616.03
2019-05-01T14:15:27.766Z,96616.80
2019-05-01T14:17:57.095Z,96608.10
2019-05-01T14:20:37.687Z,96610.94
2019-05-01T14:23:16.150Z,96605.62
2019-05-01T14:26:03.708Z,96596.38
2019-05-01T14:28:36.849Z,96595.22
2019-05-01T14:31:07.102Z,96599.08
2019-05-01T14:33:36.446Z,96596.03
2019-05-01T14:36:06.077Z,96597.33
2019-05-01T14:38:35.595Z,96596.08
2019-05-01T14:41:05.205Z,96593.31
2019-05-01T14:43:34.577Z,96587.95
2019-05-01T14:46:04.177Z,96586.70
2019-05-01T14:48:33.491Z,96588.18
2019-05-01T14:51:02.853Z,96581.95
2019-05-01T14:53:32.251Z,96582.07
2019-05-01T14:56:01.618Z,96578.92
2019-05-01T14:58:31.096Z,96573.55
2019-05-01T15:01:00.486Z,96572.38
2019-05-01T15:03:29.797Z,96567.97
2019-05-01T15:05:59.280Z,96568.91
2019-05-01T15:08:28.730Z,96570.53
2019-05-01T15:10:58.075Z,96572.80
2019-05-01T15:13:45.085Z,96559.54
2019-05-01T15:16:20.656Z,96562.95
2019-05-01T15:19:07.820Z,96563.73
2019-05-01T15:21:37.187Z,96556.41
2019-05-01T15:24:06.615Z,96550.27
2019-05-01T15:26:36.130Z,96550.27
2019-05-01T15:29:05.880Z,96548.59
2019-05-01T15:31:35.592Z,96554.25
2019-05-01T15:34:05.053Z,96548.67
2019-05-01T15:36:34.475Z,96550.79
2019-05-01T15:39:07.309Z,96544.12
2019-05-01T15:42:07.827Z,96550.41
2019-05-01T15:44:38.387Z,96544.62
2019-05-01T15:47:07.900Z,96541.52
2019-05-01T15:49:37.276Z,96541.02
2019-05-01T15:52:06.725Z,96541.02
2019-05-01T15:54:36.154Z,96540.89
2019-05-01T15:57:05.940Z,96543.52
2019-05-01T15:59:35.388Z,96538.88
2019-05-01T16:02:04.919Z,96538.96
2019-05-01T16:04:34.392Z,96542.03
2019-05-01T16:07:03.866Z,96537.25
2019-05-01T16:09:33.258Z,96540.65
2019-05-01T16:12:21.605Z,96538.34
2019-05-01T16:14:51.808Z,96536.45
2019-05-01T16:17:21.193Z,96532.48
2019-05-01T16:19:50.572Z,96525.98
2019-05-01T16:22:19.890Z,96525.13
2019-05-01T16:24:49.251Z,96517.84
2019-05-01T16:27:18.591Z,96520.60
2019-05-01T16:29:48.074Z,96518.77
2019-05-01T16:32:17.607Z,96513.11
2019-05-01T16:34:47.131Z,96511.24
2019-05-01T16:37:16.482Z,96511.67
2019-05-01T16:40:07.868Z,96510.80
2019-05-01T16:42:41.732Z,96512.34
2019-05-01T16:45:11.994Z,96508.42
2019-05-01T16:47:41.443Z,96503.09
2019-05-01T16:50:11.254Z,96498.64
2019-05-01T16:52:42.390Z,96503.58
2019-05-01T16:55:12.122Z,96503.48
2019-05-01T16:57:41.616Z,96501.55
2019-05-01T17:00:14.074Z,96491.77
2019-05-01T17:02:50.313Z,96498.80
2019-05-01T17:05:44.561Z,96496.61
2019-05-01T17:08:36.296Z,96491.04
2019-05-01T17:11:02.982Z,96494.64
2019-05-01T17:13:32.765Z,96492.20
2019-05-01T17:16:02.317Z,96492.47
2019-05-01T17:18:31.774Z,96491.14
2019-05-01T17:21:01.065Z,96493.39
2019-05-01T17:23:30.352Z,96493.38
2019-05-01T17:26:00.191Z,96497.94
2019-05-01T17:28:29.635Z,96489.31
2019-05-01T17:31:01.297Z,96491.70
2019-05-01T17:33:31.133Z,96489.39
2019-05-01T17:36:00.607Z,96488.84
2019-05-01T17:38:30.035Z,96485.81
2019-05-01T17:40:59.554Z,96493.30
2019-05-01T17:43:28.949Z,96487.87
2019-05-01T17:45:58.365Z,96497.28
2019-05-01T17:48:28.792Z,96497.19
2019-05-01T17:51:00.041Z,96496.42
2019-05-01T17:53:30.027Z,96494.91
2019-05-01T17:55:59.398Z,96503.17
2019-05-01T17:58:28.762Z,96503.28
2019-05-01T18:01:27.869Z,96503.41
2019-05-01T18:04:24.994Z,96510.55
2019-05-01T18:06:54.434Z,96504.23
2019-05-01T18:09:24.101Z,96509.79
2019-05-01T18:11:53.793Z,96509.79
2019-05-01T18:14:23.328Z,96504.47
2019-05-01T18:16:52.696Z,96509.49
2019-05-01T18:19:22.037Z,96504.28
2019-05-01T18:22:22.296Z,96506.47
2019-05-01T18:24:59.801Z,96508.80
2019-05-01T18:27:49.864Z,96518.66
2019-05-01T18:30:20.643Z,96510.78
2019-05-01T18:32:52.581Z,96516.66
2019-05-01T18:35:23.389Z,96521.95
2019-05-01T18:38:06.251Z,96523.39
2019-05-01T18:40:42.501Z,96523.16
2019-05-01T18:43:12.040Z,96523.24
2019-05-01T18:46:08.304Z,96522.81
2019-05-01T18:48:37.969Z,96523.86
2019-05-01T18:51:07.642Z,96533.61
2019-05-01T18:53:37.176Z,96533.98
2019-05-01T18:56:06.936Z,96537.44
2019-05-01T18:58:36.644Z,96536.47
2019-05-01T19:01:09.374Z,96529.89
2019-05-01T19:03:42.331Z,96532.44
2019-05-01T19:06:09.218Z,96536.16
2019-05-01T19:08:38.698Z,96538.05
2019-05-01T19:11:12.857Z,96538.44
2019-05-01T19:13:40.855Z,96541.67
2019-05-01T19:16:10.758Z,96544.41
2019-05-01T19:18:40.759Z,96542.83
2019-05-01T19:21:11.428Z,96548.32
2019-05-01T19:23:41.663Z,96546.17
2019-05-01T19:26:11.881Z,96548.32
2019-05-01T19:28:41.886Z,96544.85
2019-05-01T19:31:11.840Z,96547.02
2019-05-01T19:33:41.889Z,96542.21
2019-05-01T19:36:12.674Z,96539.28
2019-05-01T19:38:42.185Z,96540.39
2019-05-01T19:41:14.350Z,96544.12
2019-05-01T19:43:42.839Z,96546.26
2019-05-01T19:46:12.686Z,96546.53
2019-05-01T19:48:45.467Z,96545.75
2019-05-01T19:51:13.312Z,96540.34
2019-05-01T19:53:46.460Z,96550.02
2019-05-01T19:56:16.721Z,96548.97
2019-05-01T19:58:44.998Z,96553.50
2019-05-01T20:01:14.438Z,96551.64
2019-05-01T20:03:43.955Z,96551.64
2019-05-01T20:06:13.578Z,96545.46
2019-05-01T20:08:44.305Z,96553.53
2019-05-01T20:11:14.396Z,96543.33
2019-05-01T20:13:44.178Z,96545.75
2019-05-01T20:16:15.258Z,96540.63
2019-05-01T20:18:45.217Z,96540.39
2019-05-01T20:21:15.356Z,96543.05
2019-05-01T20:23:44.928Z,96540.12
2019-05-01T20:26:14.421Z,96549.52
2019-05-01T20:28:43.854Z,96549.54
2019-05-01T20:31:13.444Z,96545.52
2019-05-01T20:33:44.404Z,96548.19
2019-05-01T20:36:14.875Z,96540.13
2019-05-01T20:38:44.252Z,96539.33
2019-05-01T20:41:16.031Z,96544.40
2019-05-01T20:43:45.777Z,96542.50
2019-05-01T20:46:15.861Z,96541.91
2019-05-01T20:48:45.857Z,96536.77
2019-05-01T20:51:15.603Z,96540.22
2019-05-01T20:53:45.379Z,96536.75
2019-05-01T20:57:01.919Z,96530.82
2019-05-01T20:59:35.197Z,96532.37
2019-05-01T21:02:07.652Z,96536.05
2019-05-01T21:04:52.610Z,96536.75
2019-05-01T21:07:25.417Z,96538.42
2019-05-01T21:09:57.893Z,96532.00
2019-05-01T21:12:26.024Z,96534.30
2019-05-01T21:14:55.477Z,96527.59
2019-05-01T21:17:24.936Z,96532.67
2019-05-01T21:19:54.542Z,96531.11
2019-05-01T21:22:24.042Z,96530.55
2019-05-01T21:24:53.410Z,96528.05
2019-05-01T21:27:24.321Z,96524.39
2019-05-01T21:29:54.036Z,96525.66
2019-05-01T21:32:27.360Z,96525.90
2019-05-01T21:34:54.506Z,96526.06
2019-05-01T21:37:24.010Z,96522.81
2019-05-01T21:39:53.818Z,96519.53
2019-05-01T21:42:24.462Z,96520.63
2019-05-01T21:44:53.899Z,96517.22
2019-05-01T21:47:23.716Z,96513.44
2019-05-01T21:49:53.348Z,96513.88
2019-05-01T21:52:26.588Z,96508.89
2019-05-01T21:54:55.330Z,96507.32
2019-05-01T21:57:27.179Z,96511.50
2019-05-01T21:59:56.122Z,96506.03
2019-05-01T22:02:25.597Z,96506.12
2019-05-01T22:04:54.975Z,96506.31
2019-05-01T22:07:27.803Z,96507.37
2019-05-01T22:09:55.399Z,96505.33
2019-05-01T22:12:24.756Z,96512.41
2019-05-01T22:14:57.677Z,96510.31
2019-05-01T22:17:35.778Z,96514.08
2019-05-01T22:20:05.827Z,96505.25
2019-05-01T22:22:45.856Z,96497.56
2019-05-01T22:25:22.763Z,96496.94
2019-05-01T22:28:18.329Z,96504.63
2019-05-01T22:30:50.503Z,96501.90
2019-05-01T22:33:19.831Z,96494.84
2019-05-01T22:35:51.583Z,96504.33
2019-05-01T22:38:21.347Z,96500.23
2019-05-01T22:41:06.043Z,96493.92
2019-05-01T22:43:30.159Z,96503.85
2019-05-01T22:46:01.750Z,96498.78
2019-05-01T22:48:30.781Z,96495.15
2019-05-01T22:51:05.428Z,96494.50
2019-05-01T22:53:34.699Z,96492.42
2019-05-01T22:56:04.258Z,96494.16
2019-05-01T22:58:33.666Z,96496.52
2019-05-01T23:01:04.610Z,96492.27
2019-05-01T23:03:41.339Z,96491.44
2019-05-01T23:06:11.258Z,96486.47
2019-05-01T23:08:40.689Z,96491.88
2019-05-01T23:11:19.857Z,96483.89
2019-05-01T23:13:42.808Z,96484.48
2019-05-01T23:16:12.544Z,96485.41
2019-05-01T23:18:42.100Z,96481.59
2019-05-01T23:21:14.460Z,96473.63
2019-05-01T23:23:42.829Z,96478.30
2019-05-01T23:26:16.732Z,96471.24
2019-05-01T23:28:43.481Z,96474.67
2019-05-01T23:31:12.924Z,96475.67
2019-05-01T23:33:45.611Z,96468.86
2019-05-01T23:36:23.367Z,96464.48
2019-05-01T23:38:44.800Z,96459.23
2019-05-01T23:41:14.198Z,96458.58
2019-05-01T23:43:43.564Z,96456.88
2019-05-01T23:46:13.315Z,96456.26
2019-05-01T23:48:42.698Z,96450.66
2019-05-01T23:51:12.043Z,96446.51
2019-05-01T23:53:44.263Z,96451.31
2019-05-01T23:56:12.497Z,96441.91
2019-05-01T23:58:41.907Z,96445.06
